sensor_id;sensor_type;location;lat;lon;timestamp;pressure;altitude;pressure_sealevel;temperature;humidity
53550;BME280;67273;52.914;-0.982;2023-02-11T00:01:33;102998.19;;;16.87;40.93
53550;BME280;67273;52.914;-0.982;2023-02-11T00:04:00;102995.66;;;16.86;40.93
53550;BME280;67273;52.914;-0.982;2023-02-11T00:06:30;102992.94;;;16.86;41.10
53550;BME280;67273;52.914;-0.982;2023-02-11T00:08:56;102987.50;;;16.86;41.11
53550;BME280;67273;52.914;-0.982;2023-02-11T00:11:23;102989.38;;;16.85;40.91
53550;BME280;67273;52.914;-0.982;2023-02-11T00:13:59;102977.69;;;16.85;40.80
53550;BME280;67273;52.914;-0.982;2023-02-11T00:16:26;102977.69;;;16.85;40.92
53550;BME280;67273;52.914;-0.982;2023-02-11T00:18:53;102979.56;;;16.84;40.93
53550;BME280;67273;52.914;-0.982;2023-02-11T00:21:20;102986.00;;;16.83;41.07
53550;BME280;67273;52.914;-0.982;2023-02-11T00:23:48;102987.84;;;16.83;40.57
53550;BME280;67273;52.914;-0.982;2023-02-11T00:26:16;102986.00;;;16.83;40.98
53550;BME280;67273;52.914;-0.982;2023-02-11T00:28:43;102981.53;;;16.82;41.13
53550;BME280;67273;52.914;-0.982;2023-02-11T00:31:10;102983.41;;;16.82;40.69
53550;BME280;67273;52.914;-0.982;2023-02-11T00:33:36;102980.84;;;16.80;41.14
53550;BME280;67273;52.914;-0.982;2023-02-11T00:36:06;102980.84;;;16.80;40.92
53550;BME280;67273;52.914;-0.982;2023-02-11T00:38:32;102969.16;;;16.80;40.94
53550;BME280;67273;52.914;-0.982;2023-02-11T00:40:59;102971.88;;;16.80;41.03
53550;BME280;67273;52.914;-0.982;2023-02-11T00:43:25;102968.31;;;16.79;41.28
53550;BME280;67273;52.914;-0.982;2023-02-11T00:45:51;102960.34;;;16.78;41.24
53550;BME280;67273;52.914;-0.982;2023-02-11T00:48:16;102963.22;;;16.76;41.02
53550;BME280;67273;52.914;-0.982;2023-02-11T00:50:42;102965.94;;;16.76;40.89
53550;BME280;67273;52.914;-0.982;2023-02-11T00:53:09;102966.09;;;16.75;41.08
53550;BME280;67273;52.914;-0.982;2023-02-11T00:55:35;102966.94;;;16.75;40.79
53550;BME280;67273;52.914;-0.982;2023-02-11T00:58:02;102963.56;;;16.73;41.23
53550;BME280;67273;52.914;-0.982;2023-02-11T01:00:28;102967.31;;;16.72;41.04
53550;BME280;67273;52.914;-0.982;2023-02-11T01:02:54;102964.59;;;16.72;41.03
53550;BME280;67273;52.914;-0.982;2023-02-11T01:05:21;102968.16;;;16.72;41.27
53550;BME280;67273;52.914;-0.982;2023-02-11T01:07:47;102978.16;;;16.72;41.09
53550;BME280;67273;52.914;-0.982;2023-02-11T01:10:15;102979.16;;;16.71;41.25
53550;BME280;67273;52.914;-0.982;2023-02-11T01:12:40;102982.72;;;16.71;41.27
53550;BME280;67273;52.914;-0.982;2023-02-11T01:15:11;102995.63;;;16.69;41.10
53550;BME280;67273;52.914;-0.982;2023-02-11T01:17:38;102984.75;;;16.69;41.30
53550;BME280;67273;52.914;-0.982;2023-02-11T01:20:05;103000.03;;;16.70;40.92
53550;BME280;67273;52.914;-0.982;2023-02-11T01:22:32;102993.94;;;16.68;41.38
53550;BME280;67273;52.914;-0.982;2023-02-11T01:24:58;102998.50;;;16.68;41.18
53550;BME280;67273;52.914;-0.982;2023-02-11T01:27:24;102998.50;;;16.68;41.31
53550;BME280;67273;52.914;-0.982;2023-02-11T01:29:50;102998.50;;;16.68;40.99
53550;BME280;67273;52.914;-0.982;2023-02-11T01:32:17;103008.53;;;16.67;41.26
53550;BME280;67273;52.914;-0.982;2023-02-11T01:34:42;102996.81;;;16.67;41.31
53550;BME280;67273;52.914;-0.982;2023-02-11T01:37:08;102996.81;;;16.67;41.33
53550;BME280;67273;52.914;-0.982;2023-02-11T01:39:34;103001.41;;;16.66;41.11
53550;BME280;67273;52.914;-0.982;2023-02-11T01:42:00;102998.84;;;16.65;41.51
53550;BME280;67273;52.914;-0.982;2023-02-11T01:44:28;103000.53;;;16.66;41.33
53550;BME280;67273;52.914;-0.982;2023-02-11T01:46:54;103001.56;;;16.65;41.24
53550;BME280;67273;52.914;-0.982;2023-02-11T01:49:25;102998.84;;;16.65;41.45
53550;BME280;67273;52.914;-0.982;2023-02-11T01:51:55;102998.16;;;16.63;41.34
53550;BME280;67273;52.914;-0.982;2023-02-11T01:54:26;102996.31;;;16.63;41.38
53550;BME280;67273;52.914;-0.982;2023-02-11T01:57:14;102996.47;;;16.62;41.17
53550;BME280;67273;52.914;-0.982;2023-02-11T01:59:53;102999.19;;;16.62;41.53
53550;BME280;67273;52.914;-0.982;2023-02-11T02:02:24;103003.78;;;16.61;41.21
53550;BME280;67273;52.914;-0.982;2023-02-11T02:04:57;103002.06;;;16.60;41.03
53550;BME280;67273;52.914;-0.982;2023-02-11T02:07:32;103005.63;;;16.61;41.41
53550;BME280;67273;52.914;-0.982;2023-02-11T02:10:03;103009.19;;;16.61;41.45
53550;BME280;67273;52.914;-0.982;2023-02-11T02:12:31;102995.81;;;16.60;41.19
53550;BME280;67273;52.914;-0.982;2023-02-11T02:15:23;102995.81;;;16.60;41.35
53550;BME280;67273;52.914;-0.982;2023-02-11T02:17:57;103003.94;;;16.60;41.31
53550;BME280;67273;52.914;-0.982;2023-02-11T02:23:38;103001.56;;;16.57;41.14
53550;BME280;67273;52.914;-0.982;2023-02-11T02:26:45;103016.84;;;16.58;41.62
53550;BME280;67273;52.914;-0.982;2023-02-11T02:29:52;103012.41;;;16.57;41.28
53550;BME280;67273;52.914;-0.982;2023-02-11T02:35:36;103025.13;;;16.56;41.60
53550;BME280;67273;52.914;-0.982;2023-02-11T02:38:12;103021.56;;;16.56;41.20
53550;BME280;67273;52.914;-0.982;2023-02-11T02:40:45;103019.88;;;16.54;41.23
53550;BME280;67273;52.914;-0.982;2023-02-11T02:43:14;103019.88;;;16.54;41.18
53550;BME280;67273;52.914;-0.982;2023-02-11T02:45:41;103010.03;;;16.53;41.63
53550;BME280;67273;52.914;-0.982;2023-02-11T02:48:24;103011.91;;;16.53;41.38
53550;BME280;67273;52.914;-0.982;2023-02-11T02:51:03;103007.31;;;16.53;41.38
53550;BME280;67273;52.914;-0.982;2023-02-11T02:53:44;103004.59;;;16.53;41.38
53550;BME280;67273;52.914;-0.982;2023-02-11T02:56:22;103010.19;;;16.52;41.22
53550;BME280;67273;52.914;-0.982;2023-02-11T02:59:18;103011.06;;;16.52;41.45
53550;BME280;67273;52.914;-0.982;2023-02-11T03:01:56;103010.19;;;16.52;41.33
53550;BME280;67273;52.914;-0.982;2023-02-11T03:04:36;102996.81;;;16.50;41.46
53550;BME280;67273;52.914;-0.982;2023-02-11T03:07:13;103000.53;;;16.49;41.27
53550;BME280;67273;52.914;-0.982;2023-02-11T03:09:50;102982.53;;;16.48;41.64
53550;BME280;67273;52.914;-0.982;2023-02-11T03:12:23;102984.41;;;16.48;41.49
53550;BME280;67273;52.914;-0.982;2023-02-11T03:14:51;102983.56;;;16.47;41.79
53550;BME280;67273;52.914;-0.982;2023-02-11T03:17:19;102974.59;;;16.47;41.78
53550;BME280;67273;52.914;-0.982;2023-02-11T03:19:50;102968.28;;;16.46;41.64
53550;BME280;67273;52.914;-0.982;2023-02-11T03:22:26;102973.72;;;16.46;41.56
53550;BME280;67273;52.914;-0.982;2023-02-11T03:25:00;102977.31;;;16.47;41.70
53550;BME280;67273;52.914;-0.982;2023-02-11T03:27:32;102977.47;;;16.45;41.80
53550;BME280;67273;52.914;-0.982;2023-02-11T03:30:10;102977.47;;;16.45;41.81
53550;BME280;67273;52.914;-0.982;2023-02-11T03:32:42;102979.31;;;16.45;41.57
53550;BME280;67273;52.914;-0.982;2023-02-11T03:35:19;102969.50;;;16.44;41.62
53550;BME280;67273;52.914;-0.982;2023-02-11T03:37:51;102969.50;;;16.44;41.72
53550;BME280;67273;52.914;-0.982;2023-02-11T03:40:24;102973.03;;;16.44;41.58
53550;BME280;67273;52.914;-0.982;2023-02-11T03:42:55;102978.47;;;16.44;41.65
53550;BME280;67273;52.914;-0.982;2023-02-11T03:45:25;102982.03;;;16.45;41.85
53550;BME280;67273;52.914;-0.982;2023-02-11T03:47:56;102978.47;;;16.44;41.57
53550;BME280;67273;52.914;-0.982;2023-02-11T03:50:25;102984.94;;;16.43;41.79
53550;BME280;67273;52.914;-0.982;2023-02-11T03:52:59;102984.94;;;16.43;41.85
53550;BME280;67273;52.914;-0.982;2023-02-11T03:55:29;102978.47;;;16.44;41.55
53550;BME280;67273;52.914;-0.982;2023-02-11T03:57:58;102981.19;;;16.44;41.45
53550;BME280;67273;52.914;-0.982;2023-02-11T04:00:30;102989.50;;;16.43;42.20
53550;BME280;67273;52.914;-0.982;2023-02-11T04:02:56;103001.22;;;16.43;41.67
53550;BME280;67273;52.914;-0.982;2023-02-11T04:05:22;103012.06;;;16.43;41.76
53550;BME280;67273;52.914;-0.982;2023-02-11T04:07:47;103005.94;;;16.41;41.63
53550;BME280;67273;52.914;-0.982;2023-02-11T04:10:15;103001.53;;;16.40;41.68
53550;BME280;67273;52.914;-0.982;2023-02-11T04:12:40;103005.09;;;16.41;42.05
53550;BME280;67273;52.914;-0.982;2023-02-11T04:15:06;103009.69;;;16.40;41.88
53550;BME280;67273;52.914;-0.982;2023-02-11T04:17:32;103016.78;;;16.41;41.65
53550;BME280;67273;52.914;-0.982;2023-02-11T04:19:58;103020.53;;;16.40;42.07
53550;BME280;67273;52.914;-0.982;2023-02-11T04:22:24;103024.09;;;16.41;41.89
53550;BME280;67273;52.914;-0.982;2023-02-11T04:24:50;103025.97;;;16.40;41.88
53550;BME280;67273;52.914;-0.982;2023-02-11T04:27:17;103027.81;;;16.40;41.53
53550;BME280;67273;52.914;-0.982;2023-02-11T04:29:44;103025.09;;;16.40;41.75
53550;BME280;67273;52.914;-0.982;2023-02-11T04:32:11;103026.97;;;16.39;41.64
53550;BME280;67273;52.914;-0.982;2023-02-11T04:34:38;103025.28;;;16.38;41.67
53550;BME280;67273;52.914;-0.982;2023-02-11T04:37:06;103027.13;;;16.38;41.51
53550;BME280;67273;52.914;-0.982;2023-02-11T04:39:33;103035.25;;;16.38;42.13
53550;BME280;67273;52.914;-0.982;2023-02-11T04:41:59;103039.84;;;16.37;41.71
53550;BME280;67273;52.914;-0.982;2023-02-11T04:44:26;103033.41;;;16.38;41.92
53550;BME280;67273;52.914;-0.982;2023-02-11T04:46:52;103035.25;;;16.38;41.69
53550;BME280;67273;52.914;-0.982;2023-02-11T04:49:18;103026.44;;;16.35;41.52
53550;BME280;67273;52.914;-0.982;2023-02-11T04:51:44;103024.56;;;16.36;41.78
53550;BME280;67273;52.914;-0.982;2023-02-11T04:54:10;103022.88;;;16.35;42.08
53550;BME280;67273;52.914;-0.982;2023-02-11T04:56:36;103025.59;;;16.35;41.74
53550;BME280;67273;52.914;-0.982;2023-02-11T04:59:02;103031.03;;;16.35;41.77
53550;BME280;67273;52.914;-0.982;2023-02-11T05:01:30;103037.28;;;16.35;41.80
53550;BME280;67273;52.914;-0.982;2023-02-11T05:03:56;103035.63;;;16.34;41.96
53550;BME280;67273;52.914;-0.982;2023-02-11T05:06:21;103045.59;;;16.34;41.78
53550;BME280;67273;52.914;-0.982;2023-02-11T05:08:47;103043.91;;;16.33;41.87
53550;BME280;67273;52.914;-0.982;2023-02-11T05:11:15;103039.34;;;16.33;41.65
53550;BME280;67273;52.914;-0.982;2023-02-11T05:13:42;103036.63;;;16.33;41.69
53550;BME280;67273;52.914;-0.982;2023-02-11T05:16:08;103036.78;;;16.32;41.71
53550;BME280;67273;52.914;-0.982;2023-02-11T05:18:37;103035.78;;;16.33;41.75
53550;BME280;67273;52.914;-0.982;2023-02-11T05:21:05;103045.59;;;16.34;41.65
53550;BME280;67273;52.914;-0.982;2023-02-11T05:23:31;103061.88;;;16.34;41.95
53550;BME280;67273;52.914;-0.982;2023-02-11T05:25:58;103069.00;;;16.35;41.73
53550;BME280;67273;52.914;-0.982;2023-02-11T05:28:24;103076.47;;;16.33;41.98
53550;BME280;67273;52.914;-0.982;2023-02-11T05:30:50;103083.56;;;16.34;41.72
53550;BME280;67273;52.914;-0.982;2023-02-11T05:33:16;103082.75;;;16.33;41.96
53550;BME280;67273;52.914;-0.982;2023-02-11T05:35:43;103079.19;;;16.33;42.11
53550;BME280;67273;52.914;-0.982;2023-02-11T05:38:09;103075.59;;;16.32;42.09
53550;BME280;67273;52.914;-0.982;2023-02-11T05:40:34;103072.03;;;16.32;42.05
53550;BME280;67273;52.914;-0.982;2023-02-11T05:43:00;103074.91;;;16.30;41.72
53550;BME280;67273;52.914;-0.982;2023-02-11T05:45:26;103077.63;;;16.30;41.94
53550;BME280;67273;52.914;-0.982;2023-02-11T05:47:52;103083.06;;;16.30;41.76
53550;BME280;67273;52.914;-0.982;2023-02-11T05:50:18;103076.78;;;16.30;42.07
53550;BME280;67273;52.914;-0.982;2023-02-11T05:52:45;103075.09;;;16.29;41.75
53550;BME280;67273;52.914;-0.982;2023-02-11T05:55:11;103080.50;;;16.29;41.87
53550;BME280;67273;52.914;-0.982;2023-02-11T05:57:37;103080.50;;;16.29;42.05
53550;BME280;67273;52.914;-0.982;2023-02-11T06:00:03;103072.38;;;16.29;42.24
53550;BME280;67273;52.914;-0.982;2023-02-11T06:02:38;103069.66;;;16.29;41.86
53550;BME280;67273;52.914;-0.982;2023-02-11T06:05:04;103068.81;;;16.28;42.12
53550;BME280;67273;52.914;-0.982;2023-02-11T06:07:30;103062.53;;;16.28;42.06
53550;BME280;67273;52.914;-0.982;2023-02-11T06:09:57;103071.53;;;16.28;42.05
53550;BME280;67273;52.914;-0.982;2023-02-11T06:12:24;103073.41;;;16.28;41.99
53550;BME280;67273;52.914;-0.982;2023-02-11T06:14:49;103085.94;;;16.29;41.83
53550;BME280;67273;52.914;-0.982;2023-02-11T06:17:15;103093.06;;;16.30;42.06
53550;BME280;67273;52.914;-0.982;2023-02-11T06:19:41;103091.72;;;16.34;41.75
53550;BME280;67273;52.914;-0.982;2023-02-11T06:22:06;103095.47;;;16.41;41.82
53550;BME280;67273;52.914;-0.982;2023-02-11T06:24:32;103096.19;;;16.51;41.33
53550;BME280;67273;52.914;-0.982;2023-02-11T06:26:59;103086.38;;;16.59;41.22
53550;BME280;67273;52.914;-0.982;2023-02-11T06:29:25;103083.34;;;16.70;40.75
53550;BME280;67273;52.914;-0.982;2023-02-11T06:31:51;103083.34;;;16.78;41.08
53550;BME280;67273;52.914;-0.982;2023-02-11T06:34:17;103068.78;;;16.87;40.84
53550;BME280;67273;52.914;-0.982;2023-02-11T06:36:42;103067.81;;;16.97;40.42
53550;BME280;67273;52.914;-0.982;2023-02-11T06:39:10;103075.94;;;17.05;40.64
53550;BME280;67273;52.914;-0.982;2023-02-11T06:41:36;103074.41;;;17.10;40.50
53550;BME280;67273;52.914;-0.982;2023-02-11T06:44:04;103080.00;;;17.17;40.38
53550;BME280;67273;52.914;-0.982;2023-02-11T06:46:30;103093.59;;;17.25;40.01
53550;BME280;67273;52.914;-0.982;2023-02-11T06:48:56;103098.34;;;17.32;40.37
53550;BME280;67273;52.914;-0.982;2023-02-11T06:51:21;103094.94;;;17.38;40.28
53550;BME280;67273;52.914;-0.982;2023-02-11T06:53:47;103098.69;;;17.45;39.96
53550;BME280;67273;52.914;-0.982;2023-02-11T06:56:17;103095.25;;;17.51;39.94
53550;BME280;67273;52.914;-0.982;2023-02-11T06:58:43;103100.69;;;17.59;39.79
53550;BME280;67273;52.914;-0.982;2023-02-11T07:01:12;103096.25;;;17.66;39.90
53550;BME280;67273;52.914;-0.982;2023-02-11T07:03:40;103106.44;;;17.73;39.60
53550;BME280;67273;52.914;-0.982;2023-02-11T07:06:09;103110.53;;;17.77;39.62
53550;BME280;67273;52.914;-0.982;2023-02-11T07:08:36;103117.47;;;17.79;39.80
53550;BME280;67273;52.914;-0.982;2023-02-11T07:11:08;103115.41;;;17.81;39.66
53550;BME280;67273;52.914;-0.982;2023-02-11T07:13:33;103107.09;;;17.83;39.59
53550;BME280;67273;52.914;-0.982;2023-02-11T07:16:03;103117.81;;;17.84;39.72
53550;BME280;67273;52.914;-0.982;2023-02-11T07:18:30;103118.63;;;17.85;39.77
53550;BME280;67273;52.914;-0.982;2023-02-11T07:20:56;103129.38;;;17.86;39.84
53550;BME280;67273;52.914;-0.982;2023-02-11T07:23:22;103125.81;;;17.86;39.78
53550;BME280;67273;52.914;-0.982;2023-02-11T07:25:47;103124.78;;;17.87;39.96
53550;BME280;67273;52.914;-0.982;2023-02-11T07:28:13;103130.22;;;17.87;39.53
53550;BME280;67273;52.914;-0.982;2023-02-11T07:30:39;103132.94;;;17.87;39.73
53550;BME280;67273;52.914;-0.982;2023-02-11T07:33:05;103134.81;;;17.86;39.73
53550;BME280;67273;52.914;-0.982;2023-02-11T07:35:32;103134.81;;;17.86;39.83
53550;BME280;67273;52.914;-0.982;2023-02-11T07:37:58;103133.97;;;17.86;39.85
53550;BME280;67273;52.914;-0.982;2023-02-11T07:40:23;103128.53;;;17.86;40.07
53550;BME280;67273;52.914;-0.982;2023-02-11T07:42:49;103126.78;;;17.85;40.13
53550;BME280;67273;52.914;-0.982;2023-02-11T07:45:15;103134.13;;;17.84;39.85
53550;BME280;67273;52.914;-0.982;2023-02-11T07:47:41;103137.69;;;17.85;40.21
53550;BME280;67273;52.914;-0.982;2023-02-11T07:50:07;103136.00;;;17.84;39.96
53550;BME280;67273;52.914;-0.982;2023-02-11T07:52:35;103141.44;;;17.84;40.10
53550;BME280;67273;52.914;-0.982;2023-02-11T07:55:00;103146.88;;;17.84;39.93
53550;BME280;67273;52.914;-0.982;2023-02-11T07:57:27;103150.59;;;17.83;40.02
53550;BME280;67273;52.914;-0.982;2023-02-11T07:59:52;103156.03;;;17.83;40.14
53550;BME280;67273;52.914;-0.982;2023-02-11T08:02:18;103161.47;;;17.83;40.05
53550;BME280;67273;52.914;-0.982;2023-02-11T08:04:44;103161.47;;;17.83;40.20
53550;BME280;67273;52.914;-0.982;2023-02-11T08:07:13;103158.94;;;17.81;40.23
53550;BME280;67273;52.914;-0.982;2023-02-11T08:09:41;103163.53;;;17.81;40.17
53550;BME280;67273;52.914;-0.982;2023-02-11T08:12:06;103163.53;;;17.81;40.24
53550;BME280;67273;52.914;-0.982;2023-02-11T08:14:32;103167.25;;;17.80;40.03
53550;BME280;67273;52.914;-0.982;2023-02-11T08:16:58;103169.97;;;17.80;40.27
53550;BME280;67273;52.914;-0.982;2023-02-11T08:19:23;103165.56;;;17.79;39.91
53550;BME280;67273;52.914;-0.982;2023-02-11T08:21:49;103172.03;;;17.78;40.25
53550;BME280;67273;52.914;-0.982;2023-02-11T08:24:15;103164.91;;;17.77;40.31
53550;BME280;67273;52.914;-0.982;2023-02-11T08:26:43;103164.91;;;17.77;40.42
53550;BME280;67273;52.914;-0.982;2023-02-11T08:29:11;103167.63;;;17.77;40.42
53550;BME280;67273;52.914;-0.982;2023-02-11T08:31:40;103168.63;;;17.76;40.47
53550;BME280;67273;52.914;-0.982;2023-02-11T08:34:06;103176.78;;;17.76;40.24
53550;BME280;67273;52.914;-0.982;2023-02-11T08:36:37;103175.09;;;17.75;40.25
53550;BME280;67273;52.914;-0.982;2023-02-11T08:39:05;103163.34;;;17.74;40.36
53550;BME280;67273;52.914;-0.982;2023-02-11T08:41:31;103159.97;;;17.72;40.38
53550;BME280;67273;52.914;-0.982;2023-02-11T08:43:59;103160.81;;;17.73;40.40
53550;BME280;67273;52.914;-0.982;2023-02-11T08:46:25;103159.13;;;17.72;40.38
53550;BME280;67273;52.914;-0.982;2023-02-11T08:48:51;103159.28;;;17.70;40.51
53550;BME280;67273;52.914;-0.982;2023-02-11T08:51:20;103162.00;;;17.70;40.27
53550;BME280;67273;52.914;-0.982;2023-02-11T08:53:46;103171.19;;;17.69;40.21
53550;BME280;67273;52.914;-0.982;2023-02-11T08:56:12;103176.63;;;17.69;40.64
53550;BME280;67273;52.914;-0.982;2023-02-11T08:58:38;103175.09;;;17.66;40.48
53550;BME280;67273;52.914;-0.982;2023-02-11T09:01:11;103185.97;;;17.66;40.58
53550;BME280;67273;52.914;-0.982;2023-02-11T09:03:37;103187.00;;;17.65;40.73
53550;BME280;67273;52.914;-0.982;2023-02-11T09:06:04;103195.13;;;17.65;40.54
53550;BME280;67273;52.914;-0.982;2023-02-11T09:08:30;103192.41;;;17.65;40.68
53550;BME280;67273;52.914;-0.982;2023-02-11T09:10:56;103205.34;;;17.63;40.75
53550;BME280;67273;52.914;-0.982;2023-02-11T09:13:22;103193.63;;;17.63;40.59
53550;BME280;67273;52.914;-0.982;2023-02-11T09:15:47;103188.19;;;17.63;40.80
53550;BME280;67273;52.914;-0.982;2023-02-11T09:18:14;103196.50;;;17.61;40.43
53550;BME280;67273;52.914;-0.982;2023-02-11T09:20:40;103195.66;;;17.61;40.62
53550;BME280;67273;52.914;-0.982;2023-02-11T09:23:06;103203.81;;;17.61;40.73
53550;BME280;67273;52.914;-0.982;2023-02-11T09:25:32;103204.84;;;17.60;40.70
53550;BME280;67273;52.914;-0.982;2023-02-11T09:27:58;103200.59;;;17.57;40.56
53550;BME280;67273;52.914;-0.982;2023-02-11T09:30:23;103202.28;;;17.58;40.90
53550;BME280;67273;52.914;-0.982;2023-02-11T09:32:49;103211.31;;;17.59;40.49
53550;BME280;67273;52.914;-0.982;2023-02-11T09:35:16;103204.31;;;17.56;40.70
53550;BME280;67273;52.914;-0.982;2023-02-11T09:37:42;103201.78;;;17.55;40.61
53550;BME280;67273;52.914;-0.982;2023-02-11T09:40:09;103192.78;;;17.54;40.83
53550;BME280;67273;52.914;-0.982;2023-02-11T09:42:39;103188.34;;;17.53;40.78
53550;BME280;67273;52.914;-0.982;2023-02-11T09:45:12;103187.66;;;17.51;40.81
53550;BME280;67273;52.914;-0.982;2023-02-11T09:47:45;103196.66;;;17.52;40.91
53550;BME280;67273;52.914;-0.982;2023-02-11T09:50:14;103200.25;;;17.52;40.86
53550;BME280;67273;52.914;-0.982;2023-02-11T09:52:46;103200.25;;;17.52;40.89
53550;BME280;67273;52.914;-0.982;2023-02-11T09:55:20;103205.03;;;17.50;40.95
53550;BME280;67273;52.914;-0.982;2023-02-11T09:57:46;103197.88;;;17.49;41.00
53550;BME280;67273;52.914;-0.982;2023-02-11T10:00:18;103193.44;;;17.48;40.91
53550;BME280;67273;52.914;-0.982;2023-02-11T10:02:59;103197.19;;;17.47;40.91
53550;BME280;67273;52.914;-0.982;2023-02-11T10:05:38;103196.34;;;17.46;40.76
53550;BME280;67273;52.914;-0.982;2023-02-11T10:08:14;103204.66;;;17.45;41.00
53550;BME280;67273;52.914;-0.982;2023-02-11T10:10:49;103202.63;;;17.47;40.83
53550;BME280;67273;52.914;-0.982;2023-02-11T10:13:29;103200.91;;;17.46;40.89
53550;BME280;67273;52.914;-0.982;2023-02-11T10:16:03;103199.41;;;17.43;41.09
53550;BME280;67273;52.914;-0.982;2023-02-11T10:18:42;103199.56;;;17.42;41.19
53550;BME280;67273;52.914;-0.982;2023-02-11T10:21:16;103196.00;;;17.41;41.03
53550;BME280;67273;52.914;-0.982;2023-02-11T10:23:51;103191.41;;;17.42;40.75
53550;BME280;67273;52.914;-0.982;2023-02-11T10:26:19;103195.13;;;17.41;41.03
53550;BME280;67273;52.914;-0.982;2023-02-11T10:28:47;103189.91;;;17.39;40.81
53550;BME280;67273;52.914;-0.982;2023-02-11T10:31:16;103199.91;;;17.39;41.18
53550;BME280;67273;52.914;-0.982;2023-02-11T10:33:45;103195.50;;;17.38;41.02
53550;BME280;67273;52.914;-0.982;2023-02-11T10:36:13;103195.50;;;17.38;40.97
53550;BME280;67273;52.914;-0.982;2023-02-11T10:38:40;103199.22;;;17.37;40.98
53550;BME280;67273;52.914;-0.982;2023-02-11T10:41:12;103193.78;;;17.37;41.18
53550;BME280;67273;52.914;-0.982;2023-02-11T10:43:41;103199.38;;;17.35;41.00
53550;BME280;67273;52.914;-0.982;2023-02-11T10:46:13;103196.84;;;17.34;40.91
53550;BME280;67273;52.914;-0.982;2023-02-11T10:48:43;103203.31;;;17.33;41.23
53550;BME280;67273;52.914;-0.982;2023-02-11T10:51:18;103202.47;;;17.32;40.95
53550;BME280;67273;52.914;-0.982;2023-02-11T10:53:44;103209.41;;;17.18;41.37
53550;BME280;67273;52.914;-0.982;2023-02-11T10:56:19;103201.94;;;17.20;41.49
53550;BME280;67273;52.914;-0.982;2023-02-11T10:58:57;103206.00;;;17.24;41.25
53550;BME280;67273;52.914;-0.982;2023-02-11T11:01:37;103206.00;;;17.24;41.45
53550;BME280;67273;52.914;-0.982;2023-02-11T11:04:03;103224.00;;;17.25;41.27
53550;BME280;67273;52.914;-0.982;2023-02-11T11:06:31;103225.00;;;17.24;41.42
53550;BME280;67273;52.914;-0.982;2023-02-11T11:08:57;103219.75;;;17.23;41.17
53550;BME280;67273;52.914;-0.982;2023-02-11T11:11:25;103219.59;;;17.24;41.23
53550;BME280;67273;52.914;-0.982;2023-02-11T11:13:57;103216.88;;;17.24;41.45
53550;BME280;67273;52.914;-0.982;2023-02-11T11:16:24;103204.31;;;17.23;41.28
53550;BME280;67273;52.914;-0.982;2023-02-11T11:18:53;103204.31;;;17.23;41.46
53550;BME280;67273;52.914;-0.982;2023-02-11T11:21:40;103188.00;;;17.23;41.25
53550;BME280;67273;52.914;-0.982;2023-02-11T11:24:15;103185.28;;;17.23;41.25
53550;BME280;67273;52.914;-0.982;2023-02-11T11:26:44;103185.28;;;17.23;41.17
53550;BME280;67273;52.914;-0.982;2023-02-11T11:29:14;103197.16;;;17.22;41.10
53550;BME280;67273;52.914;-0.982;2023-02-11T11:31:47;103202.59;;;17.22;41.36
53550;BME280;67273;52.914;-0.982;2023-02-11T11:34:21;103192.75;;;17.21;41.23
53550;BME280;67273;52.914;-0.982;2023-02-11T11:36:48;103184.59;;;17.21;40.97
53550;BME280;67273;52.914;-0.982;2023-02-11T11:39:21;103188.34;;;17.20;41.22
53550;BME280;67273;52.914;-0.982;2023-02-11T11:41:54;103175.59;;;17.21;41.08
53550;BME280;67273;52.914;-0.982;2023-02-11T11:44:27;103175.75;;;17.19;41.30
53550;BME280;67273;52.914;-0.982;2023-02-11T11:47:12;103181.03;;;17.21;41.14
53550;BME280;67273;52.914;-0.982;2023-02-11T11:49:46;103198.38;;;17.20;41.30
53550;BME280;67273;52.914;-0.982;2023-02-11T11:52:19;103196.66;;;17.19;41.45
53550;BME280;67273;52.914;-0.982;2023-02-11T11:54:55;103192.06;;;17.19;41.37
53550;BME280;67273;52.914;-0.982;2023-02-11T11:57:26;103187.66;;;17.18;41.13
53550;BME280;67273;52.914;-0.982;2023-02-11T11:59:54;103182.41;;;17.17;41.19
53550;BME280;67273;52.914;-0.982;2023-02-11T12:02:52;103180.53;;;17.17;41.42
53550;BME280;67273;52.914;-0.982;2023-02-11T12:05:25;103178.84;;;17.16;41.15
53550;BME280;67273;52.914;-0.982;2023-02-11T12:08:01;103176.13;;;17.16;41.44
53550;BME280;67273;52.914;-0.982;2023-02-11T12:10:47;103185.13;;;17.17;41.08
53550;BME280;67273;52.914;-0.982;2023-02-11T12:13:26;103192.41;;;17.16;41.44
53550;BME280;67273;52.914;-0.982;2023-02-11T12:16:05;103184.59;;;17.13;41.50
53550;BME280;67273;52.914;-0.982;2023-02-11T12:18:57;103178.31;;;17.13;41.53
53550;BME280;67273;52.914;-0.982;2023-02-11T12:21:37;103176.44;;;17.13;41.50
53550;BME280;67273;52.914;-0.982;2023-02-11T12:24:21;103182.88;;;17.12;41.36
53550;BME280;67273;52.914;-0.982;2023-02-11T12:26:58;103186.47;;;17.13;41.40
53550;BME280;67273;52.914;-0.982;2023-02-11T12:29:32;103203.63;;;17.13;41.32
53550;BME280;67273;52.914;-0.982;2023-02-11T12:32:13;103203.78;;;17.12;41.64
53550;BME280;67273;52.914;-0.982;2023-02-11T12:35:02;103197.34;;;17.13;41.46
53550;BME280;67273;52.914;-0.982;2023-02-11T12:37:41;103185.59;;;17.12;41.36
53550;BME280;67273;52.914;-0.982;2023-02-11T12:40:15;103189.88;;;17.15;41.59
53550;BME280;67273;52.914;-0.982;2023-02-11T12:43:01;103187.81;;;17.17;41.19
53550;BME280;67273;52.914;-0.982;2023-02-11T12:45:59;103191.72;;;17.22;41.34
53550;BME280;67273;52.914;-0.982;2023-02-11T12:51:50;103212.13;;;17.35;40.83
53550;BME280;67273;52.914;-0.982;2023-02-11T12:54:23;103211.44;;;17.41;40.85
53550;BME280;67273;52.914;-0.982;2023-02-11T12:56:54;103208.22;;;17.45;40.70
53550;BME280;67273;52.914;-0.982;2023-02-11T12:59:43;103211.81;;;17.54;40.69
53550;BME280;67273;52.914;-0.982;2023-02-11T13:02:20;103210.28;;;17.60;40.30
53550;BME280;67273;52.914;-0.982;2023-02-11T13:04:51;103201.25;;;17.67;40.48